createdAt,value
2022-10-10T00:01:23.804Z,5.30
2022-10-10T00:03:53.778Z,5.40
2022-10-10T00:06:22.721Z,5.40
2022-10-10T00:08:51.732Z,5.50
2022-10-10T00:11:22.997Z,5.50
2022-10-10T00:13:53.637Z,5.60
2022-10-10T00:16:22.688Z,5.60
2022-10-10T00:18:52.140Z,5.30
2022-10-10T00:21:20.519Z,5.20
2022-10-10T00:23:48.798Z,5.30
2022-10-10T00:26:19.198Z,5.50
2022-10-10T00:28:48.113Z,5.60
2022-10-10T00:31:18.056Z,5.50
2022-10-10T00:33:46.966Z,5.60
2022-10-10T00:36:15.438Z,5.60
2022-10-10T00:38:43.755Z,5.50
2022-10-10T00:41:11.933Z,5.70
2022-10-10T00:43:40.607Z,5.70
2022-10-10T00:46:09.123Z,5.80
2022-10-10T00:48:42.192Z,5.90
2022-10-10T00:51:14.078Z,5.90
2022-10-10T00:53:46.220Z,6.00
2022-10-10T00:56:16.766Z,6.00
2022-10-10T00:58:51.173Z,6.10
2022-10-10T01:01:19.439Z,6.10
2022-10-10T01:03:49.416Z,6.10
2022-10-10T01:06:17.683Z,6.10
2022-10-10T01:08:45.952Z,6.00
2022-10-10T01:11:44.390Z,5.90
2022-10-10T01:14:24.783Z,5.80
2022-10-10T01:22:40.606Z,5.80
2022-10-10T01:25:20.412Z,5.70
2022-10-10T01:27:54.750Z,5.80
2022-10-10T01:30:27.794Z,5.80
2022-10-10T01:33:09.071Z,5.90
2022-10-10T01:35:48.478Z,6.00
2022-10-10T01:38:29.417Z,6.00
2022-10-10T01:41:07.249Z,6.10
2022-10-10T01:43:37.997Z,6.10
2022-10-10T01:46:13.475Z,6.20
2022-10-10T01:48:43.400Z,6.20
2022-10-10T01:51:25.905Z,6.10
2022-10-10T01:54:07.309Z,6.20
2022-10-10T01:56:46.531Z,6.30
2022-10-10T01:59:32.818Z,6.40
2022-10-10T02:02:07.885Z,6.40
2022-10-10T02:04:42.113Z,6.40
2022-10-10T02:07:15.911Z,6.40
2022-10-10T02:09:46.496Z,6.30
2022-10-10T02:12:16.205Z,6.20
2022-10-10T02:14:46.399Z,6.20
2022-10-10T02:17:19.646Z,6.30
2022-10-10T02:19:52.256Z,6.40
2022-10-10T02:22:24.020Z,6.40
2022-10-10T02:24:54.524Z,6.30
2022-10-10T02:27:30.582Z,6.30
2022-10-10T02:30:05.307Z,6.20
2022-10-10T02:32:46.379Z,6.20
2022-10-10T02:35:23.432Z,6.20
2022-10-10T02:37:54.148Z,6.30
2022-10-10T02:40:25.555Z,6.30
2022-10-10T02:42:54.795Z,6.30
2022-10-10T02:45:24.217Z,6.20
2022-10-10T02:47:56.245Z,6.30
2022-10-10T02:50:28.652Z,6.30
2022-10-10T02:52:57.834Z,6.40
2022-10-10T02:55:26.107Z,6.40
2022-10-10T02:57:54.385Z,6.40
2022-10-10T03:00:25.703Z,6.40
2022-10-10T03:02:56.785Z,6.40
2022-10-10T03:05:28.707Z,6.40
2022-10-10T03:08:00.415Z,6.40
2022-10-10T03:10:29.817Z,6.40
2022-10-10T03:13:00.268Z,6.50
2022-10-10T03:15:34.532Z,6.40
2022-10-10T03:18:06.274Z,6.40
2022-10-10T03:20:41.213Z,6.40
2022-10-10T03:23:17.578Z,6.30
2022-10-10T03:25:46.396Z,6.20
2022-10-10T03:28:16.647Z,6.10
2022-10-10T03:30:46.195Z,6.10
2022-10-10T03:33:19.817Z,6.10
2022-10-10T03:35:49.028Z,6.10
2022-10-10T03:38:20.135Z,6.10
2022-10-10T03:40:51.628Z,6.10
2022-10-10T03:43:19.875Z,6.20
2022-10-10T03:45:48.856Z,6.20
2022-10-10T03:48:24.826Z,6.20
2022-10-10T03:51:08.475Z,6.20
2022-10-10T03:53:40.394Z,6.20
2022-10-10T03:56:10.243Z,6.20
2022-10-10T03:58:38.587Z,6.20
2022-10-10T04:01:08.280Z,6.20
2022-10-10T04:03:42.981Z,6.20
2022-10-10T04:06:12.271Z,6.20
2022-10-10T04:11:24.190Z,6.20
2022-10-10T04:14:01.187Z,6.10
2022-10-10T04:16:48.065Z,6.20
2022-10-10T04:19:19.405Z,6.20
2022-10-10T04:21:47.868Z,6.20
2022-10-10T04:24:17.150Z,6.10
2022-10-10T04:26:45.372Z,6.10
2022-10-10T04:29:13.692Z,6.10
2022-10-10T04:31:43.189Z,6.10
2022-10-10T04:34:11.566Z,6.10
2022-10-10T04:36:41.240Z,6.20
2022-10-10T04:39:11.194Z,6.10
2022-10-10T04:41:45.818Z,6.00
2022-10-10T04:44:14.138Z,5.90
2022-10-10T04:46:42.540Z,5.90
2022-10-10T04:49:11.932Z,5.90
2022-10-10T04:51:47.109Z,5.90
2022-10-10T04:54:24.921Z,5.90
2022-10-10T04:56:54.529Z,5.90
2022-10-10T04:59:35.742Z,5.90
2022-10-10T05:02:13.802Z,5.90
2022-10-10T05:04:42.433Z,5.80
2022-10-10T05:07:14.665Z,5.80
2022-10-10T05:09:44.488Z,5.80
2022-10-10T05:12:16.475Z,5.80
2022-10-10T05:14:49.972Z,5.80
2022-10-10T05:17:20.597Z,5.80
2022-10-10T05:19:57.595Z,5.70
2022-10-10T05:22:27.195Z,5.70
2022-10-10T05:24:55.441Z,5.70
2022-10-10T05:27:30.965Z,5.70
2022-10-10T05:30:04.658Z,5.80
2022-10-10T05:32:34.026Z,5.80
2022-10-10T05:35:03.202Z,5.70
2022-10-10T05:44:34.453Z,5.50
2022-10-10T05:47:15.346Z,5.50
2022-10-10T05:50:01.823Z,5.60
2022-10-10T05:52:45.394Z,5.60
2022-10-10T05:55:30.987Z,5.60
2022-10-10T05:58:15.197Z,5.70
2022-10-10T06:00:48.021Z,5.80
2022-10-10T06:03:17.326Z,5.80
2022-10-10T06:06:11.487Z,5.90
2022-10-10T06:11:48.464Z,5.90
2022-10-10T06:17:34.800Z,6.10
2022-10-10T06:20:05.540Z,6.00
2022-10-10T06:22:33.956Z,6.00
2022-10-10T06:25:39.385Z,6.10
2022-10-10T06:28:52.985Z,6.10
2022-10-10T06:34:35.233Z,6.20
2022-10-10T06:37:06.848Z,6.30
2022-10-10T06:46:09.706Z,6.60
2022-10-10T06:48:39.463Z,6.70
2022-10-10T06:51:20.359Z,6.80
2022-10-10T06:53:50.362Z,6.90
2022-10-10T06:56:28.020Z,7.00
2022-10-10T06:58:57.883Z,7.10
2022-10-10T07:01:33.099Z,7.40
2022-10-10T07:04:11.234Z,7.70
2022-10-10T07:06:41.281Z,10.30
2022-10-10T07:09:11.758Z,12.40
2022-10-10T07:12:04.411Z,11.00
2022-10-10T07:17:40.146Z,10.90
2022-10-10T07:20:09.316Z,11.50
2022-10-10T07:22:42.614Z,12.00
2022-10-10T07:25:11.279Z,10.90
2022-10-10T07:27:45.949Z,10.20
2022-10-10T07:30:15.785Z,12.90
2022-10-10T07:33:03.125Z,15.60
2022-10-10T07:39:13.855Z,17.00
2022-10-10T07:41:48.708Z,18.30
2022-10-10T07:44:18.268Z,18.40
2022-10-10T07:46:58.598Z,18.90
2022-10-10T07:50:14.701Z,18.10
2022-10-10T07:52:44.129Z,16.70
2022-10-10T07:55:14.634Z,18.20
2022-10-10T08:00:50.930Z,19.50
2022-10-10T08:03:30.666Z,19.20
2022-10-10T08:06:14.769Z,19.40
2022-10-10T08:09:00.177Z,19.00
2022-10-10T08:11:45.373Z,19.50
2022-10-10T08:14:15.024Z,19.80
2022-10-10T08:16:47.957Z,19.00
2022-10-10T08:19:16.260Z,19.70
2022-10-10T08:21:47.789Z,19.30
2022-10-10T08:24:17.853Z,19.10
2022-10-10T08:26:47.449Z,19.60
2022-10-10T08:29:15.789Z,20.10
2022-10-10T08:32:06.150Z,20.40
2022-10-10T08:34:36.755Z,20.90
2022-10-10T08:43:40.730Z,21.20
2022-10-10T08:46:23.179Z,20.70
2022-10-10T08:49:00.623Z,18.30
2022-10-10T08:51:37.132Z,15.40
2022-10-10T08:54:08.193Z,14.20
2022-10-10T08:56:37.105Z,13.90
2022-10-10T09:06:32.569Z,13.70
2022-10-10T09:09:11.641Z,13.60
2022-10-10T09:11:59.879Z,13.70
2022-10-10T09:14:41.446Z,13.80
2022-10-10T09:17:21.884Z,13.80
2022-10-10T09:20:02.271Z,13.90
2022-10-10T09:22:35.755Z,14.10
2022-10-10T09:25:16.848Z,13.80
2022-10-10T09:28:00.013Z,13.80
2022-10-10T09:30:32.705Z,14.10
2022-10-10T09:33:09.006Z,14.10
2022-10-10T09:36:23.205Z,14.20
2022-10-10T09:39:10.769Z,14.10
2022-10-10T09:41:52.175Z,14.10
2022-10-10T09:44:23.365Z,14.30
2022-10-10T09:50:16.860Z,14.30
2022-10-10T09:52:47.110Z,14.60
2022-10-10T09:55:26.791Z,14.60
2022-10-10T09:58:01.447Z,14.50
2022-10-10T10:01:07.895Z,14.50
2022-10-10T10:07:45.619Z,14.60
2022-10-10T10:10:25.056Z,14.80
2022-10-10T10:12:55.224Z,14.90
2022-10-10T10:15:29.868Z,15.20
2022-10-10T10:18:28.817Z,15.30
2022-10-10T10:21:27.528Z,15.30
2022-10-10T10:24:03.219Z,15.30
2022-10-10T10:26:45.594Z,15.60
2022-10-10T10:29:29.877Z,15.70
2022-10-10T10:32:06.090Z,15.60
2022-10-10T10:35:04.616Z,15.60
2022-10-10T10:38:18.448Z,15.80
2022-10-10T10:44:36.373Z,16.10
2022-10-10T10:47:48.733Z,15.90
2022-10-10T10:50:51.948Z,15.90
2022-10-10T11:00:26.173Z,16.30
2022-10-10T11:05:15.938Z,16.30
2022-10-10T11:07:28.523Z,16.30
2022-10-10T11:10:05.342Z,15.80
2022-10-10T11:13:12.158Z,16.60
2022-10-10T11:16:10.794Z,16.70
2022-10-10T11:22:22.867Z,16.70
2022-10-10T11:25:04.342Z,16.80
2022-10-10T11:27:42.153Z,16.70
2022-10-10T11:30:18.571Z,16.90
2022-10-10T11:32:57.752Z,17.00
2022-10-10T11:35:38.426Z,17.10
2022-10-10T11:41:24.028Z,17.70
2022-10-10T11:43:56.029Z,17.70
2022-10-10T11:52:33.999Z,17.80
2022-10-10T11:55:41.038Z,17.90
2022-10-10T12:02:25.861Z,18.20
2022-10-10T12:05:19.956Z,18.10
2022-10-10T12:08:17.891Z,18.30
2022-10-10T12:11:03.297Z,17.80
2022-10-10T12:13:53.797Z,17.50
2022-10-10T12:16:36.846Z,17.60
2022-10-10T12:19:16.977Z,17.20
2022-10-10T12:22:05.592Z,17.50
2022-10-10T12:24:40.966Z,17.30
2022-10-10T12:31:33.691Z,17.60
2022-10-10T12:34:36.397Z,18.00
2022-10-10T12:38:12.098Z,18.60
2022-10-10T12:44:56.872Z,17.40
2022-10-10T12:48:03.450Z,17.70
2022-10-10T12:50:51.308Z,17.60
2022-10-10T12:54:00.105Z,17.70
2022-10-10T12:59:39.333Z,18.00
2022-10-10T13:02:20.205Z,17.70
2022-10-10T13:04:52.524Z,17.80
2022-10-10T13:07:24.346Z,17.70
2022-10-10T13:10:09.333Z,17.90
2022-10-10T13:12:51.129Z,18.10
2022-10-10T13:21:42.377Z,17.90
2022-10-10T13:24:17.802Z,18.10
2022-10-10T13:26:51.405Z,18.00
2022-10-10T13:29:39.982Z,18.20
2022-10-10T13:32:12.634Z,18.30
2022-10-10T13:34:48.938Z,18.20
2022-10-10T13:43:58.497Z,18.30
2022-10-10T13:47:04.849Z,18.40
2022-10-10T13:49:59.502Z,18.10
2022-10-10T13:52:34.949Z,18.10
2022-10-10T13:55:17.952Z,18.00
2022-10-10T14:04:25.435Z,17.70
2022-10-10T14:07:06.677Z,17.70
2022-10-10T14:09:56.917Z,17.80
2022-10-10T14:12:45.092Z,17.90
2022-10-10T14:15:40.325Z,17.70
2022-10-10T14:18:17.823Z,17.50
2022-10-10T14:20:46.909Z,17.30
2022-10-10T14:24:11.393Z,17.40
2022-10-10T14:27:06.081Z,17.50
2022-10-10T14:34:01.333Z,17.50
2022-10-10T14:36:54.002Z,17.40
2022-10-10T14:39:22.622Z,17.50
2022-10-10T14:41:51.279Z,17.50
2022-10-10T14:44:31.632Z,17.60
2022-10-10T14:47:12.022Z,17.50
2022-10-10T14:49:45.162Z,17.50
2022-10-10T14:52:21.165Z,17.50
2022-10-10T14:54:53.402Z,17.50
2022-10-10T14:57:30.678Z,17.50
2022-10-10T15:00:00.556Z,17.40
2022-10-10T15:02:30.773Z,17.40
2022-10-10T15:05:04.116Z,17.50
2022-10-10T15:07:32.998Z,17.20
2022-10-10T15:13:03.746Z,17.30
2022-10-10T15:15:40.701Z,17.30
2022-10-10T15:18:53.267Z,17.20
2022-10-10T15:22:34.592Z,17.20
2022-10-10T15:29:16.215Z,17.10
2022-10-10T15:31:54.501Z,17.00
2022-10-10T15:34:23.529Z,17.10
2022-10-10T15:36:55.617Z,17.00
2022-10-10T15:39:25.483Z,16.90
2022-10-10T15:42:22.933Z,16.80
2022-10-10T15:44:55.361Z,16.70
2022-10-10T15:47:27.654Z,16.70
2022-10-10T15:49:57.850Z,16.60
2022-10-10T15:52:31.912Z,16.60
2022-10-10T15:55:09.606Z,16.60
2022-10-10T15:57:40.246Z,16.50
2022-10-10T16:00:10.454Z,16.50
2022-10-10T16:02:39.968Z,16.40
2022-10-10T16:12:08.520Z,16.30
2022-10-10T16:18:00.457Z,16.20
2022-10-10T16:23:45.215Z,15.90
2022-10-10T16:26:19.900Z,15.80
2022-10-10T16:39:25.760Z,15.30
2022-10-10T16:41:53.976Z,15.20
2022-10-10T16:44:24.762Z,15.10
2022-10-10T16:46:56.904Z,15.00
2022-10-10T16:49:30.249Z,15.00
2022-10-10T16:52:36.924Z,14.90
2022-10-10T16:58:13.244Z,14.90
2022-10-10T17:00:44.428Z,14.80
2022-10-10T17:03:14.008Z,14.60
2022-10-10T17:05:43.792Z,14.50
2022-10-10T17:08:14.426Z,14.40
2022-10-10T17:10:44.532Z,14.30
2022-10-10T17:13:12.883Z,14.30
2022-10-10T17:15:45.583Z,14.30
2022-10-10T17:18:14.394Z,14.50
2022-10-10T17:20:45.357Z,14.50
2022-10-10T17:23:14.813Z,14.50
2022-10-10T17:25:45.733Z,14.50
2022-10-10T17:28:15.334Z,14.40
2022-10-10T17:34:40.170Z,14.40
2022-10-10T17:37:14.567Z,14.20
2022-10-10T17:39:45.045Z,14.10
2022-10-10T17:42:22.630Z,14.00
2022-10-10T17:45:43.936Z,13.90
2022-10-10T17:48:34.584Z,13.80
2022-10-10T17:51:10.330Z,13.70
2022-10-10T17:53:40.086Z,13.60
2022-10-10T17:56:14.657Z,13.50
2022-10-10T17:58:43.158Z,13.60
2022-10-10T18:01:18.456Z,13.60
2022-10-10T18:03:54.319Z,13.60
2022-10-10T18:06:32.360Z,13.50
2022-10-10T18:09:14.455Z,13.30
2022-10-10T18:11:55.578Z,13.20
2022-10-10T18:14:26.265Z,13.10
2022-10-10T18:17:15.255Z,13.10
2022-10-10T18:19:44.037Z,13.10
2022-10-10T18:22:13.716Z,13.10
2022-10-10T18:24:43.795Z,13.20
2022-10-10T18:27:14.066Z,13.20
2022-10-10T18:29:42.955Z,13.10
2022-10-10T18:32:12.090Z,13.00
2022-10-10T18:34:41.477Z,13.00
2022-10-10T18:37:10.926Z,12.90
2022-10-10T18:39:43.286Z,13.00
2022-10-10T18:42:12.595Z,12.90
2022-10-10T18:44:40.934Z,12.90
2022-10-10T18:47:10.329Z,12.90
2022-10-10T18:49:39.953Z,12.90
2022-10-10T18:52:10.893Z,12.90
2022-10-10T18:54:49.862Z,13.00
2022-10-10T18:57:26.589Z,13.00
2022-10-10T18:59:58.152Z,13.10
2022-10-10T19:02:33.613Z,13.10
2022-10-10T19:05:08.584Z,13.10
2022-10-10T19:07:38.205Z,13.00
2022-10-10T19:10:09.834Z,13.00
2022-10-10T19:12:45.132Z,13.00
2022-10-10T19:15:16.233Z,13.00
2022-10-10T19:17:48.094Z,13.00
2022-10-10T19:20:17.104Z,13.00
2022-10-10T19:22:45.637Z,13.00
2022-10-10T19:25:19.886Z,13.00
2022-10-10T19:27:52.175Z,13.00
2022-10-10T19:30:21.588Z,13.00
2022-10-10T19:32:53.884Z,13.00
2022-10-10T19:35:23.163Z,13.00
2022-10-10T19:37:51.495Z,13.00
2022-10-10T19:40:21.438Z,13.00
2022-10-10T19:42:49.717Z,13.00
2022-10-10T19:45:21.330Z,13.00
2022-10-10T19:47:50.891Z,13.00
2022-10-10T19:50:19.436Z,12.90
2022-10-10T19:52:48.036Z,12.90
2022-10-10T19:55:19.047Z,12.80
2022-10-10T19:57:50.801Z,12.70
2022-10-10T20:00:19.725Z,12.60
2022-10-10T20:02:48.012Z,12.60
2022-10-10T20:05:16.533Z,12.50
2022-10-10T20:07:44.997Z,12.50
2022-10-10T20:10:13.393Z,12.50
2022-10-10T20:12:41.671Z,12.40
2022-10-10T20:15:12.381Z,12.40
2022-10-10T20:17:40.927Z,12.40
2022-10-10T20:20:10.700Z,12.40
2022-10-10T20:22:41.021Z,12.40
2022-10-10T20:25:25.171Z,12.40
2022-10-10T20:27:53.518Z,12.40
2022-10-10T20:30:23.206Z,12.40
2022-10-10T20:32:55.975Z,12.40
2022-10-10T20:35:24.259Z,12.40
2022-10-10T20:37:52.911Z,12.40
2022-10-10T20:40:21.201Z,12.50
2022-10-10T20:42:49.497Z,12.50
2022-10-10T20:45:18.307Z,12.50
2022-10-10T20:47:49.132Z,12.50
2022-10-10T20:50:17.950Z,12.50
2022-10-10T20:52:46.280Z,12.50
2022-10-10T20:55:14.545Z,12.50
2022-10-10T20:57:42.843Z,12.50
2022-10-10T21:00:12.613Z,12.50
2022-10-10T21:02:41.353Z,12.50
2022-10-10T21:05:11.220Z,12.50
2022-10-10T21:07:39.689Z,12.50
2022-10-10T21:10:09.049Z,12.50
2022-10-10T21:12:37.952Z,12.50
2022-10-10T21:15:07.305Z,12.50
2022-10-10T21:17:35.690Z,12.50
2022-10-10T21:20:04.154Z,12.50
2022-10-10T21:22:33.958Z,12.50
2022-10-10T21:25:02.545Z,12.50
2022-10-10T21:27:30.805Z,12.50
2022-10-10T21:29:59.844Z,12.50
2022-10-10T21:32:28.176Z,12.50
2022-10-10T21:34:58.186Z,12.50
2022-10-10T21:37:27.221Z,12.50
2022-10-10T21:39:57.813Z,12.50
2022-10-10T21:42:26.465Z,12.50
2022-10-10T21:44:54.651Z,12.50
2022-10-10T21:47:23.249Z,12.50
2022-10-10T21:49:52.435Z,12.40
2022-10-10T21:52:20.837Z,12.40
2022-10-10T21:54:50.646Z,12.40
2022-10-10T21:57:20.989Z,12.30
2022-10-10T21:59:49.246Z,12.30
2022-10-10T22:02:17.576Z,12.30
2022-10-10T22:04:45.850Z,12.30
2022-10-10T22:07:14.045Z,12.30
2022-10-10T22:09:42.393Z,12.20
2022-10-10T22:12:14.356Z,12.20
2022-10-10T22:14:48.529Z,12.20
2022-10-10T22:17:17.085Z,12.10
2022-10-10T22:19:46.580Z,12.10
2022-10-10T22:22:21.054Z,12.20
2022-10-10T22:24:51.114Z,12.10
2022-10-10T22:27:23.368Z,12.10
2022-10-10T22:29:55.871Z,12.10
2022-10-10T22:32:24.328Z,12.10
2022-10-10T22:34:53.083Z,12.10
2022-10-10T22:37:23.536Z,12.10
2022-10-10T22:39:53.029Z,12.00
2022-10-10T22:42:24.481Z,12.00
2022-10-10T22:44:55.632Z,11.90
2022-10-10T22:47:27.235Z,11.90
2022-10-10T22:49:59.516Z,11.80
2022-10-10T22:52:32.177Z,11.80
2022-10-10T22:55:05.618Z,11.80
2022-10-10T22:57:37.303Z,11.80
2022-10-10T23:00:10.613Z,11.70
2022-10-10T23:02:41.622Z,11.70
2022-10-10T23:05:10.885Z,11.70
2022-10-10T23:07:40.521Z,11.70
2022-10-10T23:10:17.111Z,11.70
2022-10-10T23:13:33.413Z,11.70
2022-10-10T23:16:05.742Z,11.50
2022-10-10T23:18:36.580Z,11.50
2022-10-10T23:21:08.110Z,11.40
2022-10-10T23:23:39.345Z,11.40
2022-10-10T23:26:09.118Z,11.40
2022-10-10T23:28:39.431Z,11.30
2022-10-10T23:31:10.935Z,11.30
2022-10-10T23:33:39.482Z,11.20
2022-10-10T23:36:11.046Z,11.20
2022-10-10T23:38:40.073Z,11.20
2022-10-10T23:41:08.881Z,11.20
2022-10-10T23:43:37.895Z,11.20
2022-10-10T23:46:06.635Z,11.30
2022-10-10T23:48:36.862Z,11.30
2022-10-10T23:51:05.296Z,11.40
2022-10-10T23:53:42.182Z,11.40
2022-10-10T23:56:10.940Z,11.40
2022-10-10T23:58:39.173Z,11.50
